New Lisbon, NJ (08064)

1:36 PM EST on March 01, 2017 (GMT -0500)
Simontown Rd. and Magnolia Rd. | | Change Station
Active Advisory: Severe Thunderstorm Watch

Elev 60 ft 39.95 °N, 74.66 °W | Updated 2 seconds ago

Mostly Cloudy
Mostly Cloudy
71.4 °F
Feels Like 74 °F
N
4.0
Wind Variable Wind from SSE
Gusts 7.0 mph

Today
High -- | Low -- °F
--% Chance of Precip.
Yesterday
High -- | Low -- °F
Precip. -- in
Pressure 29.55 in
Visibility 10.0 miles
Clouds Scattered Clouds 2800 ft
Mostly Cloudy 17000 ft
Heat Index 74 °F
Dew Point 62 °F
Humidity 72%
Rainfall 0.00 in
Snow Depth Not available.
6:31 AM 5:50 PM
Waxing Crescent, 12% visible
SPECI KWRI 011833Z AUTO 24027G32KT 10SM SCT028 BKN170 23/16 A2955 RMK AO2 CIG 029 RWY06 $
Pressure 29.55 in
Visibility 10.0 miles
Clouds Scattered Clouds 2800 ft
Mostly Cloudy 17000 ft
Heat Index 74 °F
Dew Point 62 °F
Humidity 72%
Rainfall 0.00 in
Snow Depth Not available.
6:31 AM 5:50 PM
Waxing Crescent, 12% visible
SPECI KWRI 011833Z AUTO 24027G32KT 10SM SCT028 BKN170 23/16 A2955 RMK AO2 CIG 029 RWY06 $

Get Your Daily Forecast Email!

Thanks for signing up!

Be on the lookout for a verification email in your inbox.

You'll start receiving the daily forecast at 8 AM.

×

10-Day Weather Forecast

Almanac

Astronomy

Mar. 01, 2017 Rise Set
Actual Time
Civil Twilight
Nautical Twilight
Astronomical Twilight
Moon
Length of Visible Light
Length of Day
Tomorrow will be .
, % of the Moon is Illuminated

Today's Extremes

State Highs State Lows

Community

WunderPhotos

Upload Photos

1,962,540 photos uploaded!

WunderBlog® & News

Nearby

Air Quality

  Air Quality AQ Index Pollutant
Not available.

Snow Depth

Station Depth Elevation

Earthquake Activity

City Distance Mag. Time & Date
Minimum magnitude displayed is 2.5.

Coastal Water Temperatures

Place Temperature

Stations

Nearby Weather Stations

Station Location Temp. Windchill Dew Point Humidity Wind Precip. Elev Updated Type
                   

Watches & Warnings

Severe Thunderstorm Watch
Issued: 1:24 PM EST Mar. 1, 2017 – National Weather Service

Severe Thunderstorm Watch 58 remains in effect until 700 PM EST

NJ
. New Jersey counties included are

Atlantic Burlington Camden
Cape May Cumberland Gloucester
Hunterdon Mercer Middlesex
Monmouth ocean Salem
Somerset